Time;durP1;ratioP1;P1;durP2;ratioP2;P2;SDS_P1;SDS_P2;PMS_P1;PMS_P2;Temp;Humidity;BMP_temperature;BMP_pressure;BME280_temperature;BME280_humidity;BME280_pressure;Samples;Min_cycle;Max_cycle;Signal;HPM_P1;HPM_P2
2023/04/05 00:01:53;;;;;;;15.57;5.15;;;5.50;99.90;;;;;;5090832;28;20048;-57
2023/04/05 00:04:19;;;;;;;10.35;4.28;;;5.50;99.90;;;;;;5090700;28;20051;-56
2023/04/05 00:06:51;;;;;;;10.40;5.18;;;5.50;99.90;;;;;;5090932;28;20040;-59
2023/04/05 00:09:22;;;;;;;12.75;4.28;;;5.50;99.90;;;;;;5090946;28;20403;-58
2023/04/05 00:11:48;;;;;;;14.63;5.07;;;5.50;99.90;;;;;;5090768;28;20040;-58
2023/04/05 00:14:15;;;;;;;10.00;4.75;;;5.40;99.90;;;;;;5090830;28;20072;-59
2023/04/05 00:16:42;;;;;;;16.10;5.47;;;5.30;99.90;;;;;;5090506;28;20067;-57
2023/04/05 00:19:11;;;;;;;9.80;4.78;;;5.30;99.90;;;;;;5091728;28;20055;-56
2023/04/05 00:21:38;;;;;;;10.98;4.72;;;5.20;99.90;;;;;;5086816;28;20075;-58
2023/04/05 00:24:06;;;;;;;9.63;4.03;;;5.20;99.90;;;;;;5094861;28;20094;-58
2023/04/05 00:26:33;;;;;;;12.60;5.13;;;5.20;99.90;;;;;;5090338;28;20044;-58
2023/04/05 00:28:59;;;;;;;12.55;4.57;;;5.20;99.90;;;;;;5090742;28;20044;-59
2023/04/05 00:31:27;;;;;;;8.07;4.40;;;5.20;99.90;;;;;;5090039;28;20054;-58
2023/04/05 00:33:54;;;;;;;11.13;4.65;;;5.20;99.90;;;;;;5089357;28;20040;-61
2023/04/05 00:36:21;;;;;;;9.27;4.28;;;5.10;99.90;;;;;;5090281;28;20126;-58
2023/04/05 00:38:48;;;;;;;9.27;4.32;;;5.10;99.90;;;;;;5090636;28;20043;-56
2023/04/05 00:41:15;;;;;;;12.13;4.93;;;5.00;99.90;;;;;;5090056;28;20126;-55
2023/04/05 00:43:42;;;;;;;13.20;5.13;;;4.90;99.90;;;;;;5088982;28;20051;-58
2023/04/05 00:46:09;;;;;;;15.98;5.65;;;4.90;99.90;;;;;;5089728;28;20117;-58
2023/04/05 00:48:36;;;;;;;11.85;5.82;;;4.90;99.90;;;;;;5087553;28;20442;-58
2023/04/05 00:51:03;;;;;;;15.90;4.78;;;4.90;99.90;;;;;;5089148;28;20223;-58
2023/04/05 00:53:30;;;;;;;17.08;5.72;;;5.00;99.90;;;;;;5098856;28;20051;-54
2023/04/05 00:55:57;;;;;;;10.40;5.00;;;4.90;99.90;;;;;;5092018;28;20200;-56
2023/04/05 00:58:24;;;;;;;7.28;4.32;;;4.90;99.90;;;;;;5090366;28;20058;-59
2023/04/05 01:01:15;;;;;;;10.45;4.78;;;4.90;99.90;;;;;;4737517;28;9999918;-58
2023/04/05 01:03:58;;;;;;;10.70;3.97;;;4.80;99.90;;;;;;5087225;28;20042;-58
2023/04/05 01:06:59;;;;;;;15.35;5.32;;;4.60;99.90;;;;;;5088216;28;20044;-58
2023/04/05 01:09:33;;;;;;;14.10;4.68;;;4.60;99.90;;;;;;5092101;28;20058;-58
2023/04/05 01:12:01;;;;;;;13.32;4.53;;;4.50;99.90;;;;;;5089672;28;20048;-57
2023/04/05 01:14:28;;;;;;;10.60;4.97;;;4.50;99.90;;;;;;5086763;28;20048;-59
2023/04/05 01:16:58;;;;;;;11.77;5.82;;;4.50;99.90;;;;;;5089386;28;20067;-56
2023/04/05 01:19:27;;;;;;;9.38;4.05;;;4.50;99.90;;;;;;5089469;28;20295;-55
2023/04/05 01:22:19;;;;;;;11.98;5.03;;;4.60;99.90;;;;;;5088043;28;20044;-56
2023/04/05 01:25:18;;;;;;;13.88;5.40;;;4.60;99.90;;;;;;5087748;28;20086;-57
2023/04/05 01:27:57;;;;;;;11.23;4.88;;;4.60;99.90;;;;;;5089212;28;20071;-57
2023/04/05 01:30:56;;;;;;;10.20;5.25;;;4.70;99.90;;;;;;5099041;28;20097;-58
2023/04/05 01:33:43;;;;;;;9.60;4.60;;;4.70;99.90;;;;;;5076209;28;20700;-56
2023/04/05 01:36:30;;;;;;;16.45;5.95;;;4.70;99.90;;;;;;5077041;28;20130;-57
2023/04/05 01:38:57;;;;;;;12.70;6.97;;;4.70;99.90;;;;;;5087491;28;20123;-58
2023/04/05 01:41:25;;;;;;;9.32;4.88;;;4.70;99.90;;;;;;5088283;28;20079;-57
2023/04/05 01:43:52;;;;;;;12.20;5.05;;;4.70;99.90;;;;;;5087391;28;20048;-56
2023/04/05 01:46:18;;;;;;;12.57;5.82;;;4.70;99.90;;;;;;5088960;28;20052;-58
2023/04/05 01:48:45;;;;;;;7.97;4.95;;;4.80;99.90;;;;;;5088549;28;20640;-57
2023/04/05 01:51:12;;;;;;;15.70;5.53;;;4.80;99.90;;;;;;5089117;28;20512;-57
2023/04/05 01:53:39;;;;;;;10.82;5.70;;;4.80;99.90;;;;;;5088928;28;20119;-56
2023/04/05 01:56:06;;;;;;;13.63;5.32;;;4.80;99.90;;;;;;5088728;28;20052;-57
2023/04/05 01:58:33;;;;;;;12.07;5.93;;;4.80;99.90;;;;;;5088701;28;20119;-57
2023/04/05 02:00:59;;;;;;;9.07;4.97;;;4.80;99.90;;;;;;5088468;28;20517;-58
2023/04/05 02:03:26;;;;;;;15.80;6.00;;;4.80;99.90;;;;;;5088897;28;20085;-57
2023/04/05 02:05:53;;;;;;;13.70;5.35;;;4.90;99.90;;;;;;5088632;28;20477;-56
2023/04/05 02:08:20;;;;;;;9.38;5.43;;;4.90;99.90;;;;;;5089654;28;20060;-57
2023/04/05 02:10:47;;;;;;;12.43;5.35;;;4.90;99.90;;;;;;5088174;28;20582;-58
2023/04/05 02:13:13;;;;;;;10.10;5.25;;;4.80;99.90;;;;;;5088576;28;20036;-58
2023/04/05 02:15:40;;;;;;;10.65;5.47;;;4.80;99.90;;;;;;5087729;28;20051;-56
2023/04/05 02:18:08;;;;;;;13.35;5.10;;;4.90;99.90;;;;;;5087257;28;20055;-57
2023/04/05 02:20:35;;;;;;;12.38;5.75;;;4.90;99.90;;;;;;5088171;28;20044;-59
2023/04/05 02:23:01;;;;;;;17.52;8.57;;;4.90;99.90;;;;;;5088462;28;20040;-55
2023/04/05 02:25:28;;;;;;;14.23;5.80;;;4.90;99.90;;;;;;5088128;28;20070;-58
2023/04/05 02:27:55;;;;;;;15.45;6.28;;;4.90;99.90;;;;;;5088517;28;20070;-58
2023/04/05 02:30:22;;;;;;;15.43;5.85;;;4.90;99.90;;;;;;5087661;28;20062;-58
2023/04/05 02:32:48;;;;;;;15.40;6.85;;;4.90;99.90;;;;;;5088476;28;20123;-56
2023/04/05 02:35:16;;;;;;;11.32;6.57;;;4.90;99.90;;;;;;5087797;28;20075;-57
2023/04/05 02:37:43;;;;;;;14.13;6.70;;;4.90;99.90;;;;;;5086927;28;20044;-59
2023/04/05 02:40:13;;;;;;;12.30;6.10;;;5.00;99.90;;;;;;5087794;28;20090;-59
2023/04/05 02:42:40;;;;;;;14.45;6.05;;;5.00;99.90;;;;;;5086880;28;20044;-60
2023/04/05 02:45:07;;;;;;;13.68;5.82;;;5.00;99.90;;;;;;5088062;28;20125;-58
2023/04/05 02:47:34;;;;;;;16.02;5.85;;;5.00;99.90;;;;;;5084983;28;20142;-60
2023/04/05 02:50:01;;;;;;;12.95;5.97;;;5.00;99.90;;;;;;5087832;28;20083;-58
2023/04/05 02:52:28;;;;;;;11.18;6.25;;;5.00;99.90;;;;;;5087985;28;20105;-59
2023/04/05 02:54:55;;;;;;;16.42;6.95;;;4.90;99.90;;;;;;5087941;28;20044;-56
2023/04/05 02:57:21;;;;;;;8.98;5.88;;;4.80;99.90;;;;;;5087849;28;20044;-58
2023/04/05 02:59:48;;;;;;;12.60;6.68;;;4.80;99.90;;;;;;5086598;28;20044;-56
2023/04/05 03:02:15;;;;;;;19.92;7.15;;;4.70;99.90;;;;;;5087744;28;20056;-58
2023/04/05 03:04:43;;;;;;;12.70;6.70;;;4.80;99.90;;;;;;5087939;28;20510;-57
2023/04/05 03:07:13;;;;;;;12.90;6.32;;;4.90;99.90;;;;;;5084526;28;20112;-58
2023/04/05 03:09:40;;;;;;;14.02;6.53;;;5.00;99.90;;;;;;5087933;28;20044;-56
2023/04/05 03:12:07;;;;;;;13.55;7.00;;;5.00;99.90;;;;;;5087394;28;20055;-58
2023/04/05 03:14:34;;;;;;;11.38;6.78;;;5.10;99.90;;;;;;5088201;28;20055;-58
2023/04/05 03:17:00;;;;;;;10.30;5.57;;;5.20;99.90;;;;;;5087556;28;20050;-57
2023/04/05 03:19:27;;;;;;;10.50;6.10;;;5.20;99.90;;;;;;5088013;28;20533;-61
2023/04/05 03:21:54;;;;;;;13.07;6.13;;;5.20;99.90;;;;;;5087365;28;20037;-58
2023/04/05 03:24:21;;;;;;;14.70;6.57;;;5.20;99.90;;;;;;5084339;28;20048;-58
2023/04/05 03:26:48;;;;;;;11.80;6.05;;;5.20;99.90;;;;;;5087621;28;20069;-58
2023/04/05 03:29:15;;;;;;;13.18;6.72;;;5.20;99.90;;;;;;5090148;28;20534;-56
2023/04/05 03:31:43;;;;;;;11.05;5.93;;;5.30;99.90;;;;;;5091296;28;20040;-57
2023/04/05 03:34:10;;;;;;;13.40;6.90;;;5.20;99.90;;;;;;5091542;28;20227;-57
2023/04/05 03:36:42;;;;;;;14.48;6.25;;;5.20;99.90;;;;;;5091305;28;20483;-56
2023/04/05 03:39:12;;;;;;;12.27;6.07;;;5.20;99.90;;;;;;5091451;28;20044;-59
2023/04/05 03:41:39;;;;;;;9.85;6.07;;;5.20;99.90;;;;;;5077774;28;20128;-57
2023/04/05 03:44:07;;;;;;;14.73;6.10;;;5.30;99.90;;;;;;5091530;28;20082;-58
2023/04/05 03:46:36;;;;;;;10.73;6.20;;;5.30;99.90;;;;;;5091134;28;20056;-56
2023/04/05 03:49:03;;;;;;;15.93;7.15;;;5.30;99.90;;;;;;5089203;28;20044;-57
2023/04/05 03:51:31;;;;;;;17.70;7.65;;;5.30;99.90;;;;;;5091055;28;20131;-56
2023/04/05 03:53:58;;;;;;;20.00;6.88;;;5.20;99.90;;;;;;5090924;28;20040;-56
2023/04/05 03:56:26;;;;;;;13.57;6.68;;;5.20;99.90;;;;;;5089839;28;20048;-57
2023/04/05 03:58:52;;;;;;;16.17;7.07;;;5.20;99.90;;;;;;5087609;28;20068;-56
2023/04/05 04:01:19;;;;;;;11.55;6.38;;;5.30;99.90;;;;;;5091712;28;20040;-57
2023/04/05 04:03:46;;;;;;;14.18;7.30;;;5.30;99.90;;;;;;5090045;28;20072;-57
2023/04/05 04:06:13;;;;;;;12.63;6.70;;;5.30;99.90;;;;;;5078360;28;20102;-57
2023/04/05 04:08:43;;;;;;;11.60;6.60;;;5.30;99.90;;;;;;5088421;28;20044;-58
2023/04/05 04:11:10;;;;;;;12.50;6.25;;;5.40;99.90;;;;;;5090916;28;20566;-57
2023/04/05 04:13:37;;;;;;;12.60;6.32;;;5.40;99.90;;;;;;5090531;28;20040;-57
2023/04/05 04:16:04;;;;;;;13.02;6.00;;;5.40;99.90;;;;;;5089808;28;20084;-59
2023/04/05 04:18:31;;;;;;;14.52;6.90;;;5.40;99.90;;;;;;5090570;28;20043;-58
2023/04/05 04:21:05;;;;;;;15.93;7.32;;;5.40;99.90;;;;;;5090546;28;20086;-56
2023/04/05 04:23:33;;;;;;;14.40;6.03;;;5.40;99.90;;;;;;5089241;28;20495;-58
2023/04/05 04:26:01;;;;;;;13.23;6.15;;;5.40;99.90;;;;;;5090833;28;20077;-59
2023/04/05 04:28:28;;;;;;;14.43;7.20;;;5.40;99.90;;;;;;5091922;28;20089;-57
2023/04/05 04:30:55;;;;;;;11.63;5.43;;;5.30;99.90;;;;;;5089063;28;20063;-58
2023/04/05 04:33:22;;;;;;;12.40;6.60;;;5.30;99.90;;;;;;5090299;28;20044;-57
2023/04/05 04:35:53;;;;;;;16.48;7.05;;;5.40;99.90;;;;;;5090367;28;20083;-57
2023/04/05 04:38:20;;;;;;;12.75;7.20;;;5.30;99.90;;;;;;5090169;28;20552;-59
2023/04/05 04:40:49;;;;;;;14.43;7.47;;;5.40;99.90;;;;;;5089877;28;20040;-56
2023/04/05 04:43:16;;;;;;;14.40;7.22;;;5.40;99.90;;;;;;5092440;28;20070;-56
2023/04/05 04:45:47;;;;;;;11.77;6.72;;;5.40;99.90;;;;;;5090073;28;20048;-57
2023/04/05 04:48:15;;;;;;;13.32;6.82;;;5.30;99.90;;;;;;5088378;28;20044;-57
2023/04/05 04:50:43;;;;;;;16.20;8.30;;;5.30;99.90;;;;;;5086632;28;20073;-55
2023/04/05 04:53:10;;;;;;;17.40;7.40;;;5.30;99.90;;;;;;5088092;28;20089;-58
2023/04/05 04:55:37;;;;;;;15.95;7.85;;;5.40;99.90;;;;;;5088627;28;20483;-58
2023/04/05 04:58:08;;;;;;;20.33;7.80;;;5.30;99.90;;;;;;5089818;28;20051;-56
2023/04/05 05:00:38;;;;;;;21.20;9.05;;;5.40;99.90;;;;;;5088804;28;20486;-58
2023/04/05 05:03:07;;;;;;;15.95;8.15;;;5.40;99.90;;;;;;5078643;28;20051;-58
2023/04/05 05:05:33;;;;;;;16.77;8.60;;;5.30;99.90;;;;;;5090135;28;20437;-58
2023/04/05 05:08:00;;;;;;;14.93;8.50;;;5.40;99.90;;;;;;5089455;28;20042;-57
2023/04/05 05:10:27;;;;;;;20.27;8.85;;;5.30;99.90;;;;;;5088865;28;20040;-58
2023/04/05 05:12:54;;;;;;;20.08;9.45;;;5.40;99.90;;;;;;5089761;28;20234;-59
2023/04/05 05:15:20;;;;;;;24.35;8.77;;;5.40;99.90;;;;;;5092722;28;20138;-58
2023/04/05 05:17:51;;;;;;;20.60;9.60;;;5.40;99.90;;;;;;5088768;28;20044;-57
2023/04/05 05:20:18;;;;;;;19.45;8.02;;;5.50;99.90;;;;;;5093301;28;20048;-58
2023/04/05 05:22:45;;;;;;;19.15;7.97;;;5.50;99.90;;;;;;5089232;28;20560;-58
2023/04/05 05:25:12;;;;;;;12.32;7.78;;;5.50;99.90;;;;;;5089118;28;20134;-58
2023/04/05 05:27:39;;;;;;;13.05;6.93;;;5.40;99.90;;;;;;5089196;28;20054;-58
2023/04/05 05:30:06;;;;;;;20.05;7.57;;;5.40;99.90;;;;;;5095407;28;20054;-57
2023/04/05 05:32:33;;;;;;;18.25;8.07;;;5.40;99.90;;;;;;5089947;28;20055;-57
2023/04/05 05:35:00;;;;;;;24.83;10.45;;;5.60;99.90;;;;;;5097016;28;20048;-60
2023/04/05 05:37:30;;;;;;;14.80;8.40;;;5.40;99.90;;;;;;5089173;28;20044;-58
2023/04/05 05:39:57;;;;;;;21.27;10.75;;;5.50;99.90;;;;;;5089268;28;20575;-57
2023/04/05 05:42:25;;;;;;;17.67;8.30;;;5.50;99.90;;;;;;5089303;28;20036;-58
2023/04/05 05:44:52;;;;;;;15.43;8.75;;;5.50;99.90;;;;;;5099356;28;20059;-58
2023/04/05 05:47:19;;;;;;;15.80;9.70;;;5.50;99.90;;;;;;5086382;28;20058;-57
2023/04/05 05:49:48;;;;;;;16.33;8.32;;;5.60;99.90;;;;;;5088196;28;20576;-58
2023/04/05 05:52:15;;;;;;;15.38;8.73;;;5.50;99.90;;;;;;5087629;28;20056;-57
2023/04/05 05:54:42;;;;;;;26.40;9.23;;;5.60;99.90;;;;;;5085928;28;20040;-58
2023/04/05 05:57:09;;;;;;;18.27;8.07;;;5.60;99.90;;;;;;5093500;28;20055;-58
2023/04/05 05:59:35;;;;;;;17.48;9.68;;;5.60;99.90;;;;;;5086128;28;20043;-57
2023/04/05 06:02:04;;;;;;;20.83;7.93;;;5.70;99.90;;;;;;4733676;28;10000502;-59
2023/04/05 06:04:31;;;;;;;15.05;8.88;;;5.70;99.90;;;;;;5084858;28;20098;-57
2023/04/05 06:06:58;;;;;;;19.95;9.02;;;5.70;99.90;;;;;;5082377;28;20082;-58
2023/04/05 06:09:25;;;;;;;24.35;10.32;;;5.70;99.90;;;;;;5082626;28;20075;-56
2023/04/05 06:11:52;;;;;;;18.75;10.60;;;5.70;99.90;;;;;;5084427;28;20048;-57
2023/04/05 06:14:23;;;;;;;16.63;9.68;;;5.70;99.90;;;;;;5087109;28;20051;-57
2023/04/05 06:16:50;;;;;;;19.83;10.23;;;5.70;99.90;;;;;;5072837;28;20061;-59
2023/04/05 06:19:17;;;;;;;18.83;9.02;;;5.80;99.90;;;;;;5085025;28;20055;-57
2023/04/05 06:21:43;;;;;;;28.95;11.02;;;5.70;99.90;;;;;;5073613;28;20047;-57
2023/04/05 06:24:10;;;;;;;21.45;9.52;;;5.60;99.90;;;;;;5083871;28;20128;-58
2023/04/05 06:26:37;;;;;;;22.42;11.32;;;5.60;99.90;;;;;;5085414;28;20467;-60
2023/04/05 06:29:05;;;;;;;21.48;11.13;;;5.60;99.90;;;;;;5077093;28;20055;-58
2023/04/05 06:31:33;;;;;;;17.13;10.80;;;5.70;99.90;;;;;;5082372;28;20079;-56
2023/04/05 06:34:00;;;;;;;20.98;10.68;;;5.70;99.90;;;;;;5084453;28;20078;-58
2023/04/05 06:36:30;;;;;;;22.38;10.68;;;5.70;99.90;;;;;;5081172;28;20048;-58
2023/04/05 06:38:58;;;;;;;20.33;10.98;;;5.80;99.90;;;;;;5082437;28;20643;-58
2023/04/05 06:41:26;;;;;;;19.95;11.23;;;5.80;99.90;;;;;;5073937;28;20052;-55
2023/04/05 06:43:53;;;;;;;20.92;10.63;;;5.80;99.90;;;;;;5083129;28;20047;-58
2023/04/05 06:46:20;;;;;;;18.60;10.30;;;5.90;99.90;;;;;;5092559;28;20102;-58
2023/04/05 06:48:48;;;;;;;19.70;9.95;;;6.00;99.90;;;;;;5082284;28;20097;-59
2023/04/05 06:51:15;;;;;;;15.80;8.95;;;6.00;99.90;;;;;;5081403;28;20098;-56
2023/04/05 06:53:42;;;;;;;18.38;9.00;;;6.00;99.90;;;;;;5074098;28;20040;-55
2023/04/05 06:56:10;;;;;;;19.35;9.05;;;6.10;99.90;;;;;;5087061;28;20163;-55
2023/04/05 06:58:37;;;;;;;14.70;7.57;;;6.20;99.90;;;;;;5084861;28;20051;-59
2023/04/05 07:01:04;;;;;;;21.77;7.25;;;6.20;99.90;;;;;;5083666;28;20060;-57
2023/04/05 07:03:31;;;;;;;15.43;7.55;;;6.30;99.90;;;;;;5086476;28;20048;-59
2023/04/05 07:05:58;;;;;;;12.63;7.18;;;6.40;99.90;;;;;;5088072;28;20135;-60
2023/04/05 07:08:26;;;;;;;13.30;6.65;;;6.50;99.90;;;;;;5088231;28;20071;-58
2023/04/05 07:10:53;;;;;;;16.27;7.97;;;6.60;99.90;;;;;;5083666;28;20775;-58
2023/04/05 07:13:20;;;;;;;16.45;7.82;;;6.70;99.90;;;;;;5086579;28;20075;-56
2023/04/05 07:15:47;;;;;;;48.70;8.85;;;6.70;99.90;;;;;;5087390;28;20066;-56
2023/04/05 07:18:17;;;;;;;26.60;7.35;;;6.80;99.90;;;;;;5088279;28;20059;-58
2023/04/05 07:20:46;;;;;;;12.23;7.32;;;6.90;99.90;;;;;;5090897;28;20080;-56
2023/04/05 07:23:13;;;;;;;17.92;6.55;;;7.00;99.90;;;;;;5070443;28;20083;-55
2023/04/05 07:25:40;;;;;;;17.73;7.35;;;7.20;99.90;;;;;;5087728;28;20075;-58
2023/04/05 07:28:07;;;;;;;17.23;7.38;;;7.30;99.90;;;;;;5087822;28;20044;-57
2023/04/05 07:30:35;;;;;;;13.55;6.30;;;7.50;99.90;;;;;;5089848;28;20459;-57
2023/04/05 07:33:02;;;;;;;11.95;6.13;;;7.50;99.90;;;;;;5088166;28;20052;-58
2023/04/05 07:35:29;;;;;;;14.57;6.53;;;7.70;99.90;;;;;;5086783;28;20562;-59
2023/04/05 07:37:56;;;;;;;17.67;5.43;;;7.80;99.90;;;;;;5087495;28;20044;-58
2023/04/05 07:40:24;;;;;;;9.95;4.93;;;7.90;99.90;;;;;;5087352;28;20051;-59
2023/04/05 07:42:51;;;;;;;12.70;6.30;;;8.00;99.90;;;;;;5087802;28;20151;-58
2023/04/05 07:45:18;;;;;;;10.93;5.82;;;8.00;99.90;;;;;;5092226;28;20056;-58
2023/04/05 07:47:45;;;;;;;15.27;5.93;;;8.10;99.90;;;;;;5086282;28;20052;-57
2023/04/05 07:50:13;;;;;;;10.63;5.90;;;8.10;99.90;;;;;;5087916;28;20656;-58
2023/04/05 07:52:41;;;;;;;10.85;5.43;;;8.10;99.90;;;;;;5076157;28;20686;-58
2023/04/05 07:55:08;;;;;;;10.75;6.10;;;8.20;99.90;;;;;;5088468;28;20706;-57
2023/04/05 07:57:36;;;;;;;10.55;5.22;;;8.30;99.90;;;;;;5085593;28;20059;-58
2023/04/05 08:00:09;;;;;;;11.77;5.03;;;8.30;99.90;;;;;;5084463;28;20483;-59
2023/04/05 08:02:36;;;;;;;14.27;5.25;;;8.40;99.90;;;;;;5086691;28;20051;-58
2023/04/05 08:05:03;;;;;;;13.18;5.28;;;8.40;99.90;;;;;;5086583;28;20083;-58
2023/04/05 08:07:30;;;;;;;18.23;5.13;;;8.50;99.90;;;;;;5086734;28;20044;-57
2023/04/05 08:09:58;;;;;;;6.50;3.53;;;8.60;99.90;;;;;;5089162;28;20073;-59
2023/04/05 08:12:29;;;;;;;8.55;4.03;;;8.80;99.90;;;;;;5088765;28;20144;-59
2023/04/05 08:14:56;;;;;;;7.95;4.85;;;8.70;99.90;;;;;;5086890;28;20449;-58
2023/04/05 08:17:25;;;;;;;14.43;5.22;;;8.70;99.90;;;;;;5086154;28;20075;-56
2023/04/05 08:19:53;;;;;;;12.98;4.30;;;8.70;99.90;;;;;;5090097;28;20291;-50
2023/04/05 08:22:20;;;;;;;17.30;4.68;;;8.70;99.90;;;;;;5092304;28;20135;-55
2023/04/05 08:24:47;;;;;;;10.50;4.55;;;8.80;99.90;;;;;;5084205;28;20507;-56
2023/04/05 08:27:13;;;;;;;13.85;5.20;;;8.90;99.90;;;;;;5094749;28;20056;-55
2023/04/05 08:29:40;;;;;;;14.65;4.55;;;9.00;99.90;;;;;;5086662;28;20368;-57
2023/04/05 08:32:07;;;;;;;12.82;5.03;;;9.20;99.90;;;;;;5087306;28;20080;-57
2023/04/05 08:34:34;;;;;;;11.13;3.67;;;9.20;99.90;;;;;;5088172;28;20040;-58
2023/04/05 08:37:01;;;;;;;9.98;4.43;;;9.20;99.90;;;;;;5089541;28;20052;-59
2023/04/05 08:39:28;;;;;;;10.70;4.45;;;9.20;99.90;;;;;;5087038;28;20079;-56
2023/04/05 08:42:08;;;;;;;24.83;5.32;;;9.20;99.90;;;;;;5099216;28;20048;-58
2023/04/05 08:44:36;;;;;;;8.63;3.55;;;9.30;99.90;;;;;;5085732;28;20070;-58
2023/04/05 08:47:02;;;;;;;15.60;4.88;;;9.50;99.90;;;;;;5089069;28;20064;-57
2023/04/05 08:49:29;;;;;;;10.00;4.00;;;9.50;99.90;;;;;;5088336;28;20116;-55
2023/04/05 08:51:56;;;;;;;10.98;4.32;;;9.60;99.90;;;;;;5103323;28;20055;-58
2023/04/05 08:54:23;;;;;;;9.50;3.50;;;9.70;99.90;;;;;;5087202;28;20040;-59
2023/04/05 08:56:50;;;;;;;12.07;3.47;;;9.70;99.90;;;;;;5089202;28;20058;-58
2023/04/05 08:59:18;;;;;;;46.67;5.93;;;9.60;99.90;;;;;;5087333;28;20044;-56
2023/04/05 09:01:47;;;;;;;10.77;4.10;;;9.60;99.90;;;;;;5087885;28;20085;-55
2023/04/05 09:04:17;;;;;;;11.25;4.63;;;9.70;99.90;;;;;;5088508;28;20130;-56
2023/04/05 09:06:44;;;;;;;17.10;4.53;;;9.80;99.90;;;;;;5088928;28;20106;-58
2023/04/05 09:09:11;;;;;;;18.05;4.25;;;9.90;99.90;;;;;;5088587;28;20071;-53
2023/04/05 09:11:37;;;;;;;11.23;5.28;;;9.80;99.90;;;;;;5070088;28;20506;-55
2023/04/05 09:14:04;;;;;;;16.45;5.63;;;9.80;99.90;;;;;;5087475;28;20048;-56
2023/04/05 09:16:37;;;;;;;11.55;4.72;;;9.80;99.90;;;;;;5081525;28;20558;-56
2023/04/05 09:19:04;;;;;;;6.65;4.25;;;9.90;99.90;;;;;;5087383;28;20048;-56
2023/04/05 09:21:58;;;;;;;16.10;4.25;;;9.90;99.90;;;;;;5088869;28;20064;-57
2023/04/05 09:24:33;;;;;;;9.13;4.63;;;10.00;99.90;;;;;;5087380;28;20098;-57
2023/04/05 09:27:13;;;;;;;11.75;4.72;;;9.90;99.90;;;;;;5088629;28;20125;-56
2023/04/05 09:29:41;;;;;;;15.68;4.75;;;10.00;99.90;;;;;;5087788;28;20378;-55
2023/04/05 09:32:08;;;;;;;12.98;4.45;;;10.00;99.90;;;;;;5088008;28;20079;-57
2023/04/05 09:34:36;;;;;;;12.20;4.30;;;10.10;99.90;;;;;;5086704;28;20115;-58
2023/04/05 09:37:13;;;;;;;11.95;4.78;;;10.10;99.90;;;;;;5088868;28;20047;-57
2023/04/05 09:39:39;;;;;;;16.52;6.93;;;10.10;99.90;;;;;;5087953;28;20552;-56
2023/04/05 09:42:08;;;;;;;8.13;3.88;;;10.20;99.90;;;;;;5088091;28;20127;-58
2023/04/05 09:45:00;;;;;;;16.88;4.38;;;10.30;99.90;;;;;;5088315;28;20081;-58
2023/04/05 09:47:31;;;;;;;11.90;6.63;;;10.30;99.90;;;;;;5097852;28;20140;-56
2023/04/05 09:49:58;;;;;;;11.73;4.75;;;10.50;99.90;;;;;;5087413;28;20052;-58
2023/04/05 09:52:27;;;;;;;25.70;6.30;;;10.60;99.90;;;;;;5088378;28;20135;-57
2023/04/05 09:55:02;;;;;;;6.97;3.47;;;10.60;99.90;;;;;;5086215;28;20282;-58
2023/04/05 09:57:33;;;;;;;15.57;6.43;;;10.80;99.90;;;;;;5085059;28;20048;-58
2023/04/05 09:59:59;;;;;;;13.65;4.78;;;11.00;99.90;;;;;;5087669;28;20071;-58
2023/04/05 10:02:35;;;;;;;13.50;4.20;;;11.20;99.90;;;;;;5084687;28;20465;-58
2023/04/05 10:05:06;;;;;;;9.73;3.53;;;11.30;99.90;;;;;;5087255;28;20055;-56
2023/04/05 10:07:33;;;;;;;8.02;2.88;;;11.40;99.90;;;;;;5087225;28;20514;-59
2023/04/05 10:10:00;;;;;;;9.88;3.78;;;11.40;99.90;;;;;;5087540;28;20135;-58
2023/04/05 10:12:27;;;;;;;10.15;3.63;;;11.30;99.90;;;;;;5086208;28;20074;-58
2023/04/05 10:14:55;;;;;;;7.60;3.85;;;11.40;99.90;;;;;;5087676;28;20044;-58
2023/04/05 10:17:38;;;;;;;11.75;3.78;;;11.40;99.90;;;;;;5088618;28;20131;-59
2023/04/05 10:20:16;;;;;;;18.42;5.40;;;11.40;99.90;;;;;;5071477;28;20127;-63
2023/04/05 10:22:56;;;;;;;16.70;4.15;;;11.50;99.90;;;;;;5086452;28;20058;-58
2023/04/05 10:25:51;;;;;;;7.57;3.78;;;11.60;99.90;;;;;;5088426;28;20094;-58
2023/04/05 10:28:36;;;;;;;8.93;3.33;;;11.70;99.90;;;;;;5088404;28;20044;-57
2023/04/05 10:31:09;;;;;;;13.88;3.25;;;11.70;99.90;;;;;;4733763;27;9999755;-58
2023/04/05 10:33:44;;;;;;;10.13;3.47;;;11.70;99.90;;;;;;5084392;28;20147;-60
2023/04/05 10:36:30;;;;;;;7.15;3.45;;;11.70;99.90;;;;;;5087345;28;20036;-57
2023/04/05 10:39:03;;;;;;;13.93;4.43;;;11.50;99.90;;;;;;5084563;28;20151;-57
2023/04/05 10:41:34;;;;;;;9.90;3.78;;;11.40;99.90;;;;;;5086641;28;20047;-57
2023/04/05 10:44:02;;;;;;;8.27;3.58;;;11.50;99.90;;;;;;5087131;28;20127;-57
2023/04/05 10:46:44;;;;;;;10.68;4.47;;;11.60;99.90;;;;;;5087622;28;20052;-57
2023/04/05 10:49:37;;;;;;;8.70;3.80;;;11.60;99.90;;;;;;5087347;28;20109;-56
2023/04/05 10:52:04;;;;;;;7.80;3.70;;;11.70;99.90;;;;;;5087388;28;20159;-57
2023/04/05 10:54:32;;;;;;;4.75;3.10;;;11.80;99.90;;;;;;5069239;28;20057;-58
2023/04/05 10:57:00;;;;;;;12.85;3.80;;;12.00;99.90;;;;;;5085883;28;20123;-58
2023/04/05 10:59:27;;;;;;;8.50;3.38;;;12.20;99.90;;;;;;5069078;28;20062;-57
2023/04/05 11:01:54;;;;;;;9.70;3.47;;;12.30;99.90;;;;;;5089397;28;20109;-57
2023/04/05 11:04:22;;;;;;;7.05;2.80;;;12.40;99.90;;;;;;5085921;28;20040;-57
2023/04/05 11:07:09;;;;;;;6.45;3.58;;;12.40;99.90;;;;;;5090519;28;20131;-57
2023/04/05 11:09:36;;;;;;;4.85;3.20;;;12.50;97.20;;;;;;5087096;28;20067;-58
2023/04/05 11:12:03;;;;;;;10.05;4.50;;;12.60;99.90;;;;;;5068003;28;20357;-54
2023/04/05 11:14:38;;;;;;;13.20;3.90;;;12.60;99.90;;;;;;5086528;28;20044;-56
2023/04/05 11:17:05;;;;;;;9.65;3.17;;;12.70;96.00;;;;;;5087481;28;20044;-58
2023/04/05 11:19:48;;;;;;;9.52;4.10;;;12.70;93.50;;;;;;5068898;28;20105;-58
2023/04/05 11:22:24;;;;;;;6.67;3.07;;;12.40;90.60;;;;;;5078948;28;20092;-55
2023/04/05 11:24:56;;;;;;;10.13;3.72;;;12.30;90.70;;;;;;5084005;28;20337;-57
2023/04/05 11:27:28;;;;;;;21.52;5.45;;;12.30;90.80;;;;;;5085801;28;20115;-57
2023/04/05 11:29:58;;;;;;;11.60;4.53;;;12.50;95.40;;;;;;5086882;28;20470;-54
2023/04/05 11:32:42;;;;;;;9.43;3.97;;;12.60;96.00;;;;;;5085913;28;20058;-58
2023/04/05 11:35:13;;;;;;;10.15;4.13;;;12.70;91.60;;;;;;5086770;28;20108;-57
2023/04/05 11:37:53;;;;;;;9.05;3.58;;;12.70;91.30;;;;;;5086820;28;20044;-58
2023/04/05 11:40:32;;;;;;;10.77;3.97;;;12.90;92.00;;;;;;5083725;28;20086;-58
2023/04/05 11:43:00;;;;;;;15.90;4.85;;;12.80;93.60;;;;;;5088067;28;20427;-59
2023/04/05 11:45:28;;;;;;;11.70;4.75;;;12.80;94.10;;;;;;5086680;28;20045;-58
2023/04/05 11:48:07;;;;;;;8.63;3.72;;;12.90;96.10;;;;;;5086830;28;20135;-57
2023/04/05 11:50:35;;;;;;;11.10;4.47;;;13.10;95.60;;;;;;5087297;28;20054;-60
2023/04/05 11:53:15;;;;;;;7.05;3.78;;;13.30;96.20;;;;;;5103736;28;20586;-57
2023/04/05 11:55:46;;;;;;;10.75;3.80;;;13.40;95.00;;;;;;5090270;28;20177;-57
2023/04/05 11:58:17;;;;;;;18.02;4.75;;;13.30;95.20;;;;;;5086544;28;20147;-59
2023/04/05 12:00:45;;;;;;;8.57;4.43;;;13.30;94.60;;;;;;5086011;28;20052;-58
2023/04/05 12:03:13;;;;;;;26.60;4.30;;;13.40;95.80;;;;;;5100296;28;20070;-58
2023/04/05 12:05:50;;;;;;;12.82;3.92;;;13.50;96.10;;;;;;5089964;28;20201;-58
2023/04/05 12:08:18;;;;;;;17.67;5.03;;;13.70;95.40;;;;;;5088881;28;20486;-58
2023/04/05 12:10:55;;;;;;;7.18;3.67;;;13.90;94.80;;;;;;5088211;28;20507;-58
2023/04/05 12:13:27;;;;;;;11.45;3.85;;;14.00;93.60;;;;;;5086544;28;20131;-60
2023/04/05 12:15:53;;;;;;;14.43;3.80;;;14.20;93.80;;;;;;5088287;28;20105;-59
2023/04/05 12:18:20;;;;;;;7.10;3.65;;;14.10;93.90;;;;;;5090845;28;20052;-60
2023/04/05 12:20:47;;;;;;;14.70;4.32;;;14.10;93.90;;;;;;5089313;28;20127;-59
2023/04/05 12:23:14;;;;;;;10.05;4.43;;;14.00;93.50;;;;;;5088648;28;20052;-58
2023/04/05 12:25:41;;;;;;;6.68;3.70;;;13.90;93.00;;;;;;5089616;28;20126;-61
2023/04/05 12:28:08;;;;;;;7.88;3.47;;;13.90;93.80;;;;;;5085273;28;20048;-60
2023/04/05 12:30:36;;;;;;;6.00;3.10;;;13.90;93.60;;;;;;5088863;28;20668;-60
2023/04/05 12:33:10;;;;;;;8.52;4.28;;;13.90;94.00;;;;;;5080746;28;20056;-59
2023/04/05 12:35:37;;;;;;;7.80;3.67;;;14.00;93.90;;;;;;5088035;28;20079;-59
2023/04/05 12:38:04;;;;;;;7.75;3.90;;;14.00;95.70;;;;;;5071388;28;20048;-59
2023/04/05 12:40:33;;;;;;;6.18;3.83;;;14.00;94.30;;;;;;5086419;28;20051;-57
2023/04/05 12:43:07;;;;;;;8.38;3.33;;;14.00;95.50;;;;;;5087871;28;20052;-60
2023/04/05 12:45:40;;;;;;;44.92;6.20;;;14.00;95.20;;;;;;5086959;28;20079;-58
2023/04/05 12:48:12;;;;;;;10.55;4.07;;;14.00;95.60;;;;;;5096167;28;20395;-57
2023/04/05 12:50:46;;;;;;;5.63;2.90;;;14.00;96.00;;;;;;5087601;28;20084;-59
2023/04/05 12:53:22;;;;;;;;;;;13.90;94.60;;;;;;5097158;28;20052;-58
2023/04/05 12:55:52;;;;;;;12.38;3.30;;;13.90;93.70;;;;;;5088567;28;19943;-58
2023/04/05 12:58:36;;;;;;;5.50;2.83;;;13.90;92.30;;;;;;5086225;28;20074;-56